Time;durP1;ratioP1;P1;durP2;ratioP2;P2;SDS_P1;SDS_P2;PMS_P1;PMS_P2;Temp;Humidity;BMP_temperature;BMP_pressure;BME280_temperature;BME280_humidity;BME280_pressure;Samples;Min_cycle;Max_cycle;Signal;HPM_P1;HPM_P2
2023/06/01 00:00:20;;;;;;;11.10;4.22;;;;;;;13.95;100.00;95885.19;1030586;28;20030;-73
2023/06/01 00:00:50;;;;;;;6.40;3.80;;;;;;;13.94;100.00;95887.06;1034951;28;20145;-73
2023/06/01 00:01:21;;;;;;;6.97;4.13;;;;;;;13.94;100.00;95896.81;1029750;28;20512;-73
2023/06/01 00:01:51;;;;;;;8.10;3.85;;;;;;;13.95;100.00;95887.84;1030725;28;20053;-73
2023/06/01 00:02:22;;;;;;;6.68;3.67;;;;;;;13.93;100.00;95892.63;1030597;28;20238;-73
2023/06/01 00:02:52;;;;;;;6.40;3.35;;;;;;;13.91;100.00;95891.03;1034864;28;20040;-74
2023/06/01 00:03:23;;;;;;;7.55;3.80;;;;;;;13.93;100.00;95892.63;1034739;28;20727;-73
2023/06/01 00:03:53;;;;;;;12.68;4.65;;;;;;;13.93;100.00;95895.25;1033567;28;20107;-73
2023/06/01 00:04:24;;;;;;;6.70;3.78;;;;;;;13.91;100.00;95892.88;1034459;28;20427;-73
2023/06/01 00:04:54;;;;;;;6.55;4.00;;;;;;;13.89;100.00;95890.53;1030991;28;20026;-73
2023/06/01 00:05:24;;;;;;;7.18;3.78;;;;;;;13.87;100.00;95902.44;1030179;28;20041;-73
2023/06/01 00:05:56;;;;;;;6.18;3.60;;;;;;;13.89;100.00;95892.41;1030781;28;20089;-73
2023/06/01 00:06:30;;;;;;;9.07;3.83;;;;;;;13.89;100.00;95897.69;1034762;28;20530;-73
2023/06/01 00:07:01;;;;;;;8.43;3.72;;;;;;;13.86;100.00;95896.38;1034764;28;20025;-73
2023/06/01 00:07:32;;;;;;;7.50;4.10;;;;;;;13.86;100.00;95899.00;1035157;28;20040;-74
2023/06/01 00:08:04;;;;;;;8.32;3.88;;;;;;;13.87;100.00;95895.31;1030689;28;20030;-73
2023/06/01 00:08:35;;;;;;;6.53;3.92;;;;;;;13.86;100.00;95901.66;1030704;28;20129;-73
2023/06/01 00:09:06;;;;;;;7.75;3.88;;;;;;;13.84;100.00;95900.34;1030755;28;20040;-74
2023/06/01 00:09:37;;;;;;;8.82;3.55;;;;;;;13.83;100.00;95902.22;1027189;28;20031;-73
2023/06/01 00:10:07;;;;;;;7.25;3.88;;;;;;;13.82;100.00;95900.63;1035134;28;20742;-74
2023/06/01 00:10:38;;;;;;;6.03;3.90;;;;;;;13.82;100.00;95898.00;1038715;28;20091;-73
2023/06/01 00:11:08;;;;;;;7.55;4.25;;;;;;;13.82;100.00;95903.28;1038478;28;20599;-74
2023/06/01 00:11:39;;;;;;;7.57;3.67;;;;;;;13.67;100.00;95874.41;1042705;28;20029;-74
2023/06/01 00:12:09;;;;;;;8.23;4.18;;;;;;;13.78;100.00;95901.47;1034836;28;20038;-73
2023/06/01 00:12:40;;;;;;;7.75;3.70;;;;;;;13.77;100.00;95899.91;1030612;28;20396;-73
2023/06/01 00:13:10;;;;;;;7.32;3.92;;;;;;;13.74;100.00;95898.59;1034442;28;20037;-73
2023/06/01 00:13:41;;;;;;;6.78;3.80;;;;;;;13.74;100.00;95900.44;1026592;28;20029;-73
2023/06/01 00:14:11;;;;;;;8.35;4.00;;;;;;;13.74;100.00;95906.50;1026745;28;20030;-73
2023/06/01 00:14:42;;;;;;;7.10;3.67;;;;;;;13.74;100.00;95903.88;1030537;28;20432;-74
2023/06/01 00:15:12;;;;;;;5.65;3.65;;;;;;;13.74;100.00;95895.94;1026683;28;20031;-74
2023/06/01 00:15:43;;;;;;;8.50;3.88;;;;;;;13.75;100.00;95902.81;1033040;28;20037;-72
2023/06/01 00:16:14;;;;;;;7.07;4.00;;;;;;;13.74;100.00;95906.50;1034523;28;20041;-74
2023/06/01 00:16:45;;;;;;;7.18;3.72;;;;;;;13.74;100.00;95903.09;1030693;28;20030;-74
2023/06/01 00:17:16;;;;;;;7.15;3.65;;;;;;;13.73;100.00;95904.94;1031678;28;20121;-74
2023/06/01 00:17:46;;;;;;;6.03;3.70;;;;;;;13.69;100.00;95898.66;1034461;28;20487;-74
2023/06/01 00:18:17;;;;;;;6.50;3.85;;;;;;;13.70;100.00;95904.72;1034833;28;20826;-73
2023/06/01 00:18:47;;;;;;;5.07;3.42;;;;;;;13.67;100.00;95906.03;1034696;28;20100;-74
2023/06/01 00:19:18;;;;;;;6.60;4.25;;;;;;;13.67;100.00;95898.13;1034622;28;20022;-73
2023/06/01 00:19:48;;;;;;;5.57;3.83;;;;;;;13.62;100.00;95892.91;1030723;28;20030;-73
2023/06/01 00:20:19;;;;;;;5.93;3.75;;;;;;;13.64;100.00;95902.09;1034627;28;20022;-73
2023/06/01 00:20:50;;;;;;;5.35;3.50;;;;;;;13.62;100.00;95906.09;1034620;28;20034;-73
2023/06/01 00:21:21;;;;;;;11.98;4.32;;;;;;;13.63;100.00;95905.03;1033878;28;20205;-73
2023/06/01 00:21:55;;;;;;;8.65;4.18;;;;;;;13.62;100.00;95900.84;1034323;28;20038;-73
2023/06/01 00:22:28;;;;;;;7.72;3.95;;;;;;;13.57;100.00;95895.59;1026671;28;20030;-73
2023/06/01 00:22:59;;;;;;;7.03;3.67;;;;;;;13.59;100.00;95901.38;1027475;28;20030;-73
2023/06/01 00:23:29;;;;;;;7.80;4.00;;;;;;;13.59;100.00;95898.75;1026472;28;20031;-74
2023/06/01 00:24:00;;;;;;;5.78;3.70;;;;;;;13.58;100.00;95903.25;1035173;28;20056;-73
2023/06/01 00:24:30;;;;;;;5.70;3.70;;;;;;;13.59;100.00;95904.03;1038503;28;20022;-73
2023/06/01 00:25:01;;;;;;;8.45;4.03;;;;;;;13.59;100.00;95904.03;1038727;28;20028;-73
2023/06/01 00:25:31;;;;;;;5.97;3.28;;;;;;;13.60;100.00;95902.94;1034680;28;20075;-73
2023/06/01 00:26:02;;;;;;;6.70;3.75;;;;;;;13.59;100.00;95901.38;1026436;28;20031;-73
2023/06/01 00:26:33;;;;;;;11.32;3.97;;;;;;;13.58;100.00;95897.97;1030153;28;20526;-74
2023/06/01 00:27:03;;;;;;;7.40;4.25;;;;;;;13.57;100.00;95896.38;1030676;28;20011;-72
2023/06/01 00:27:34;;;;;;;6.22;3.83;;;;;;;13.58;100.00;95897.16;1034628;28;20032;-73
2023/06/01 00:28:04;;;;;;;8.18;3.95;;;;;;;13.58;100.00;95891.88;1038518;28;20713;-73
2023/06/01 00:28:35;;;;;;;6.53;3.90;;;;;;;13.57;100.00;95900.88;1034548;28;20017;-73
2023/06/01 00:29:05;;;;;;;7.60;3.95;;;;;;;13.57;100.00;95893.72;1034608;28;20018;-73
2023/06/01 00:29:36;;;;;;;6.38;3.95;;;;;;;13.56;100.00;95899.31;1030502;28;20550;-72
2023/06/01 00:30:07;;;;;;;8.40;3.90;;;;;;;13.56;100.00;95896.66;1026490;28;20539;-73
2023/06/01 00:30:37;;;;;;;6.90;3.70;;;;;;;13.56;100.00;95896.66;1030678;28;20022;-73
2023/06/01 00:31:08;;;;;;;6.35;4.00;;;;;;;13.55;100.00;95895.09;1025951;28;20037;-74
2023/06/01 00:31:38;;;;;;;8.25;3.95;;;;;;;13.55;100.00;95893.25;1034367;28;20014;-72
2023/06/01 00:32:09;;;;;;;7.75;3.92;;;;;;;13.55;100.00;95897.72;1026555;28;20094;-73
2023/06/01 00:32:39;;;;;;;6.43;4.07;;;;;;;13.54;100.00;95890.88;1026544;28;20022;-73
2023/06/01 00:33:09;;;;;;;8.57;4.15;;;;;;;13.54;100.00;95891.66;1026190;28;20034;-73
2023/06/01 00:33:40;;;;;;;7.68;3.58;;;;;;;13.53;100.00;95897.22;1022869;28;20436;-73
2023/06/01 00:34:11;;;;;;;9.25;3.95;;;;;;;13.53;100.00;95897.22;1026379;28;20061;-73
2023/06/01 00:34:41;;;;;;;8.98;3.97;;;;;;;13.52;100.00;95893.00;1027468;28;20039;-73
2023/06/01 00:35:12;;;;;;;8.25;3.80;;;;;;;13.52;100.00;95893.00;1034582;28;20069;-73
2023/06/01 00:35:42;;;;;;;8.00;3.95;;;;;;;13.52;100.00;95893.00;1034443;28;20022;-73
2023/06/01 00:36:13;;;;;;;8.23;3.88;;;;;;;13.43;100.00;95885.69;1030773;28;20053;-73
2023/06/01 00:36:43;;;;;;;7.40;4.28;;;;;;;13.52;100.00;95893.00;1033722;28;20474;-73
2023/06/01 00:37:14;;;;;;;7.20;4.03;;;;;;;13.52;100.00;95893.00;1030441;28;20026;-74
2023/06/01 00:37:44;;;;;;;8.50;4.18;;;;;;;13.50;100.00;95897.75;1030793;28;20429;-73
2023/06/01 00:38:15;;;;;;;6.57;3.85;;;;;;;13.48;100.00;95895.41;1028553;28;20034;-74
2023/06/01 00:38:45;;;;;;;8.73;4.07;;;;;;;13.41;100.00;95893.09;1014721;29;20031;-73
2023/06/01 00:39:16;;;;;;;7.53;3.90;;;;;;;13.47;100.00;95900.94;1022392;29;20015;-72
2023/06/01 00:39:46;;;;;;;7.30;4.22;;;;;;;13.46;100.00;95894.13;1026967;28;20639;-73
2023/06/01 00:40:17;;;;;;;8.20;3.70;;;;;;;13.43;100.00;95885.69;1030905;28;20022;-73
2023/06/01 00:40:50;;;;;;;7.40;4.25;;;;;;;13.43;100.00;95890.97;1030422;28;20112;-74
2023/06/01 00:41:20;;;;;;;6.18;3.63;;;;;;;13.44;100.00;95891.75;1030224;28;20030;-73
2023/06/01 00:41:51;;;;;;;7.05;4.03;;;;;;;13.46;100.00;95899.38;1038258;28;20278;-73
2023/06/01 00:42:21;;;;;;;9.18;4.20;;;;;;;13.44;100.00;95894.38;1034568;28;20025;-73
2023/06/01 00:42:52;;;;;;;8.57;4.30;;;;;;;13.47;100.00;95893.03;1030607;28;20543;-73
2023/06/01 00:43:22;;;;;;;8.63;4.30;;;;;;;13.44;100.00;95897.78;1034419;28;20388;-74
2023/06/01 00:43:52;;;;;;;10.90;4.38;;;;;;;13.48;100.00;95892.78;1030657;28;20022;-73
2023/06/01 00:44:23;;;;;;;8.75;3.85;;;;;;;13.49;100.00;95893.56;1030756;28;20023;-73
2023/06/01 00:44:53;;;;;;;6.88;3.40;;;;;;;13.49;100.00;95896.19;1034328;28;20033;-74
2023/06/01 00:45:24;;;;;;;6.30;3.80;;;;;;;13.51;100.00;95894.06;1034477;28;20033;-73
2023/06/01 00:45:54;;;;;;;6.05;3.97;;;;;;;13.46;100.00;95888.84;1034835;28;20916;-73
2023/06/01 00:46:25;;;;;;;7.47;4.00;;;;;;;13.46;100.00;95889.63;1034497;28;20037;-73
2023/06/01 00:46:56;;;;;;;4.55;3.63;;;;;;;13.46;100.00;95888.84;1030323;28;20098;-73
2023/06/01 00:47:26;;;;;;;6.95;3.90;;;;;;;13.47;100.00;95887.78;1030435;28;20471;-74
2023/06/01 00:47:56;;;;;;;7.93;4.40;;;;;;;13.46;100.00;95894.91;1026132;28;20845;-73
2023/06/01 00:48:27;;;;;;;5.97;3.70;;;;;;;13.44;100.00;95892.53;1031849;28;20033;-73
2023/06/01 00:48:58;;;;;;;7.85;4.28;;;;;;;13.42;100.00;95888.59;1026428;28;20030;-74
2023/06/01 00:49:28;;;;;;;8.40;4.00;;;;;;;13.42;100.00;95894.66;1026578;28;20030;-72
2023/06/01 00:49:58;;;;;;;5.78;3.63;;;;;;;13.35;100.00;95881.03;1030718;28;20026;-73
2023/06/01 00:50:29;;;;;;;9.82;3.75;;;;;;;13.38;100.00;95890.19;1026550;28;20019;-73
2023/06/01 00:51:00;;;;;;;13.07;4.45;;;;;;;13.37;100.00;95894.69;1022105;29;20103;-72
2023/06/01 00:51:32;;;;;;;7.82;4.50;;;;;;;13.35;100.00;95888.94;1018442;29;20573;-73
2023/06/01 00:52:03;;;;;;;10.07;4.07;;;;;;;13.33;100.00;95891.03;1018275;29;20024;-74
2023/06/01 00:52:34;;;;;;;11.63;4.47;;;;;;;13.32;100.00;95889.47;1019262;28;20035;-73
2023/06/01 00:53:06;;;;;;;5.68;3.60;;;;;;;13.25;100.00;95883.75;1026882;28;20555;-73
2023/06/01 00:53:36;;;;;;;9.27;3.80;;;;;;;13.27;100.00;95886.88;1022793;28;20019;-74
2023/06/01 00:54:07;;;;;;;6.72;4.13;;;;;;;13.29;100.00;95890.03;1026874;28;20023;-73
2023/06/01 00:54:37;;;;;;;5.95;4.00;;;;;;;13.27;100.00;95896.63;1026442;28;20731;-73
2023/06/01 00:55:08;;;;;;;6.43;3.85;;;;;;;13.26;100.00;95890.56;1021630;28;20034;-73
2023/06/01 00:55:39;;;;;;;9.40;4.05;;;;;;;13.26;100.00;95889.78;1022758;28;20098;-73
2023/06/01 00:56:11;;;;;;;7.25;4.20;;;;;;;13.26;100.00;95897.69;1026705;28;20420;-73
2023/06/01 00:56:42;;;;;;;8.88;4.63;;;;;;;13.19;100.00;95890.84;1027134;28;20015;-74
2023/06/01 00:57:12;;;;;;;6.70;3.85;;;;;;;13.22;100.00;95894.78;1022141;28;20031;-73
2023/06/01 00:57:43;;;;;;;6.95;4.05;;;;;;;13.23;100.00;95888.44;1022516;29;20024;-73
2023/06/01 00:58:13;;;;;;;5.75;4.10;;;;;;;13.22;100.00;95878.97;1022542;29;20114;-74
2023/06/01 00:58:44;;;;;;;7.45;4.18;;;;;;;13.18;100.00;95880.59;1025196;28;20719;-74
2023/06/01 00:59:14;;;;;;;9.98;4.20;;;;;;;13.19;100.00;95892.72;1030571;28;20022;-73
2023/06/01 00:59:45;;;;;;;6.07;3.83;;;;;;;13.17;100.00;95887.69;1034411;28;20010;-73
2023/06/01 01:00:15;;;;;;;7.47;3.88;;;;;;;13.18;100.00;95891.16;1034229;28;20160;-73
2023/06/01 01:00:48;;;;;;;7.82;4.30;;;;;;;13.10;100.00;95886.44;1038873;28;20024;-73
2023/06/01 01:01:22;;;;;;;7.55;4.00;;;;;;;13.12;100.00;95895.66;1033026;28;20926;-73
2023/06/01 01:01:52;;;;;;;9.15;4.75;;;;;;;13.10;100.00;95891.72;1026542;28;20125;-73
2023/06/01 01:02:23;;;;;;;7.68;4.18;;;;;;;13.08;100.00;95888.59;1032071;28;20061;-73
2023/06/01 01:02:53;;;;;;;9.95;4.30;;;;;;;13.07;100.00;95884.34;1034527;28;20519;-73
2023/06/01 01:03:25;;;;;;;8.45;3.63;;;;;;;13.07;100.00;95890.41;1034551;28;20022;-73
2023/06/01 01:04:00;;;;;;;7.78;3.80;;;;;;;13.07;100.00;95895.69;1030588;28;20838;-73
2023/06/01 01:04:32;;;;;;;7.50;4.15;;;;;;;13.07;100.00;95890.41;1035215;28;20018;-73
2023/06/01 01:05:09;;;;;;;7.32;4.05;;;;;;;13.05;100.00;95892.53;1038756;28;20656;-73
2023/06/01 01:05:41;;;;;;;7.10;4.05;;;;;;;13.04;100.00;95893.59;1038325;28;20021;-73
2023/06/01 01:06:17;;;;;;;8.23;4.22;;;;;;;12.99;100.00;95891.00;1033199;28;20060;-73
2023/06/01 01:06:57;;;;;;;6.55;4.18;;;;;;;13.00;100.00;95886.50;1030585;28;20018;-73
2023/06/01 01:07:51;;;;;;;6.97;4.25;;;;;;;12.98;100.00;95890.22;1030481;28;20023;-73
2023/06/01 01:08:32;;;;;;;5.95;3.42;;;;;;;12.97;100.00;95883.34;1033612;28;20025;-74
2023/06/01 01:09:30;;;;;;;9.65;4.20;;;;;;;12.97;100.00;95890.47;1034583;28;20026;-73
2023/06/01 01:10:12;;;;;;;7.50;3.70;;;;;;;12.96;100.00;95887.06;1032358;28;20428;-74
2023/06/01 01:11:01;;;;;;;9.18;4.15;;;;;;;12.93;100.00;95890.22;1032853;28;20021;-73
2023/06/01 01:11:31;;;;;;;7.97;4.45;;;;;;;12.94;100.00;95888.38;1030307;28;20026;-74
2023/06/01 01:12:32;;;;;;;7.78;4.03;;;;;;;12.93;100.00;95894.72;1030202;28;20018;-73
2023/06/01 01:13:06;;;;;;;6.00;4.13;;;;;;;12.93;100.00;95892.09;1030362;28;20037;-73
2023/06/01 01:14:14;;;;;;;6.25;3.42;;;;;;;12.91;100.00;95889.75;1034416;28;20029;-73
2023/06/01 01:15:13;;;;;;;7.65;3.88;;;;;;;12.87;100.00;95880.78;1027651;28;20105;-73
2023/06/01 01:16:07;;;;;;;9.00;4.25;;;;;;;12.89;100.00;95891.06;1036350;28;20101;-73
2023/06/01 01:16:45;;;;;;;9.90;4.10;;;;;;;12.88;100.00;95895.56;1042659;28;20036;-73
2023/06/01 01:17:24;;;;;;;5.57;3.70;;;;;;;12.88;100.00;95890.28;1036663;28;20046;-73
2023/06/01 01:18:01;;;;;;;6.25;3.47;;;;;;;12.91;100.00;95891.56;1030296;28;20026;-73
2023/06/01 01:18:37;;;;;;;8.20;4.07;;;;;;;12.89;100.00;95891.06;1030557;28;20034;-73
2023/06/01 01:19:31;;;;;;;9.82;4.45;;;;;;;12.90;100.00;95888.16;1029112;28;20105;-73
2023/06/01 01:20:08;;;;;;;7.00;4.28;;;;;;;12.88;100.00;95882.38;1030613;28;20014;-73
2023/06/01 01:20:40;;;;;;;9.30;4.20;;;;;;;12.93;100.00;95889.44;1034574;28;20300;-71
2023/06/01 01:21:28;;;;;;;8.90;4.43;;;;;;;12.93;100.00;95887.59;1033395;28;20026;-73
2023/06/01 01:22:14;;;;;;;7.03;3.65;;;;;;;12.90;100.00;95888.16;1030422;28;20026;-72
2023/06/01 01:22:48;;;;;;;5.80;3.97;;;;;;;12.92;100.00;95885.25;1030660;28;20137;-74
2023/06/01 01:23:48;;;;;;;5.82;4.28;;;;;;;12.86;100.00;95876.59;1034380;28;20041;-73
2023/06/01 01:24:40;;;;;;;8.25;4.18;;;;;;;12.90;100.00;95888.16;1032034;28;20026;-73
2023/06/01 01:25:32;;;;;;;8.88;4.00;;;;;;;12.87;100.00;95886.06;1038641;28;20529;-73
2023/06/01 01:26:24;;;;;;;8.02;4.13;;;;;;;12.86;100.00;95881.84;1035967;28;20026;-73
2023/06/01 01:27:16;;;;;;;5.75;3.78;;;;;;;12.86;100.00;95887.13;1036979;28;20403;-73
2023/06/01 01:27:52;;;;;;;9.23;3.97;;;;;;;12.84;100.00;95889.22;1034661;28;20028;-74
2023/06/01 01:28:35;;;;;;;9.27;4.05;;;;;;;12.82;100.00;95891.38;1034369;28;20022;-73
2023/06/01 01:29:08;;;;;;;6.35;3.50;;;;;;;12.82;100.00;95885.31;1038639;28;20112;-72
2023/06/01 01:29:39;;;;;;;6.80;3.72;;;;;;;12.76;100.00;95881.91;1030482;28;20052;-73
2023/06/01 01:30:09;;;;;;;7.72;4.03;;;;;;;12.79;100.00;95886.66;1028509;28;20034;-72
2023/06/01 01:30:41;;;;;;;9.20;3.75;;;;;;;12.81;100.00;95883.72;1018556;29;20754;-74
2023/06/01 01:31:13;;;;;;;7.93;4.13;;;;;;;12.82;100.00;95882.69;1025772;28;20026;-73
2023/06/01 01:31:43;;;;;;;6.22;3.90;;;;;;;12.80;100.00;95877.69;1026222;28;20062;-73
2023/06/01 01:32:14;;;;;;;9.48;4.88;;;;;;;12.83;100.00;95890.31;1022361;28;20030;-73
2023/06/01 01:32:44;;;;;;;7.13;4.20;;;;;;;12.83;100.00;95882.41;1026248;28;20674;-74
2023/06/01 01:33:15;;;;;;;10.38;4.05;;;;;;;12.82;100.00;95886.09;1037171;28;20067;-74
2023/06/01 01:33:46;;;;;;;6.53;3.85;;;;;;;12.82;100.00;95885.31;1030552;28;20014;-73
2023/06/01 01:34:17;;;;;;;6.03;4.18;;;;;;;12.76;100.00;95875.88;1022280;29;20034;-73
2023/06/01 01:34:48;;;;;;;9.30;4.68;;;;;;;12.77;100.00;95886.13;1020676;29;20035;-73
2023/06/01 01:35:18;;;;;;;13.07;4.70;;;;;;;12.79;100.00;95881.38;1022572;28;20031;-73
2023/06/01 01:35:50;;;;;;;7.68;4.05;;;;;;;12.82;100.00;95885.31;1034452;28;20473;-73
2023/06/01 01:36:20;;;;;;;7.00;3.92;;;;;;;12.81;100.00;95887.16;1034331;28;20092;-73
2023/06/01 01:36:51;;;;;;;8.13;4.50;;;;;;;12.82;100.00;95891.38;1030118;28;20069;-73
2023/06/01 01:37:22;;;;;;;8.73;4.10;;;;;;;12.80;100.00;95885.56;1014602;29;20034;-73
2023/06/01 01:37:53;;;;;;;9.00;4.38;;;;;;;12.81;100.00;95887.16;1022542;29;20061;-73
2023/06/01 01:38:23;;;;;;;8.30;4.20;;;;;;;12.79;100.00;95888.50;1025444;28;20125;-73
2023/06/01 01:38:54;;;;;;;7.93;4.25;;;;;;;12.79;100.00;95886.66;1023031;28;20023;-74
2023/06/01 01:39:24;;;;;;;9.32;4.13;;;;;;;12.79;100.00;95886.66;1026528;28;20038;-73
2023/06/01 01:39:55;;;;;;;6.75;4.22;;;;;;;12.79;100.00;95889.28;1030155;28;20026;-73
2023/06/01 01:40:25;;;;;;;7.28;3.90;;;;;;;12.77;100.00;95887.97;1034329;28;20546;-73
2023/06/01 01:40:56;;;;;;;5.88;3.95;;;;;;;12.78;100.00;95884.28;1034166;28;20135;-73
2023/06/01 01:41:26;;;;;;;7.60;3.97;;;;;;;12.78;100.00;95885.06;1033818;28;20028;-73
2023/06/01 01:41:57;;;;;;;11.18;4.53;;;;;;;12.78;100.00;95885.06;1034306;28;20033;-73
2023/06/01 01:42:27;;;;;;;5.32;3.78;;;;;;;12.77;100.00;95885.34;1034287;28;20542;-74
2023/06/01 01:42:58;;;;;;;7.28;4.70;;;;;;;12.77;100.00;95878.22;1038520;28;20025;-74
2023/06/01 01:43:28;;;;;;;7.95;3.85;;;;;;;12.78;100.00;95879.81;1034230;28;20034;-73
2023/06/01 01:43:59;;;;;;;6.95;4.32;;;;;;;12.79;100.00;95883.22;1030263;28;20029;-73
2023/06/01 01:44:29;;;;;;;7.80;4.05;;;;;;;12.76;100.00;95876.66;1026379;28;20089;-73
2023/06/01 01:45:00;;;;;;;8.52;4.55;;;;;;;12.78;100.00;95887.72;1026405;28;20015;-74
2023/06/01 01:45:30;;;;;;;7.55;3.92;;;;;;;12.79;100.00;95885.88;1030301;28;20653;-73
2023/06/01 01:46:22;;;;;;;7.63;4.47;;;;;;;12.75;100.00;95875.09;1030501;28;20026;-73
2023/06/01 01:47:12;;;;;;;7.13;3.90;;;;;;;12.76;100.00;95881.91;1026303;28;20129;-73
2023/06/01 01:47:58;;;;;;;7.32;4.18;;;;;;;12.75;100.00;95885.63;1027720;28;20027;-73
2023/06/01 01:48:34;;;;;;;7.93;4.22;;;;;;;12.69;100.00;95871.69;1030093;28;20069;-73
2023/06/01 01:49:12;;;;;;;8.98;4.32;;;;;;;12.69;100.00;95873.53;1030410;28;20014;-73
2023/06/01 01:49:48;;;;;;;6.75;3.75;;;;;;;12.72;100.00;95879.03;1022413;29;20023;-73
2023/06/01 01:50:18;;;;;;;6.45;4.05;;;;;;;12.71;100.00;95874.84;1026029;28;20017;-72
2023/06/01 01:50:55;;;;;;;8.35;4.10;;;;;;;12.75;100.00;95877.72;1026250;28;20416;-73
2023/06/01 01:51:49;;;;;;;8.55;4.22;;;;;;;12.77;100.00;95880.84;1033235;28;20826;-73
2023/06/01 01:52:25;;;;;;;6.60;3.92;;;;;;;12.77;100.00;95885.34;1026240;28;20018;-73
2023/06/01 01:52:56;;;;;;;9.25;4.30;;;;;;;12.74;100.00;95870.84;1022252;29;20277;-73
2023/06/01 01:53:26;;;;;;;10.68;4.55;;;;;;;12.70;100.00;95869.84;1014084;29;20406;-73
2023/06/01 01:53:57;;;;;;;5.15;3.70;;;;;;;12.76;100.00;95881.91;1019304;29;20027;-74
2023/06/01 01:54:27;;;;;;;6.75;3.90;;;;;;;12.79;100.00;95883.22;1022143;29;20019;-73
2023/06/01 01:54:58;;;;;;;7.10;4.20;;;;;;;12.78;100.00;95882.44;1026112;28;20046;-73
2023/06/01 01:55:28;;;;;;;9.13;4.43;;;;;;;12.78;100.00;95879.03;1018109;29;20075;-73
2023/06/01 01:55:59;;;;;;;6.13;3.83;;;;;;;12.79;100.00;95876.13;1022305;29;20552;-73
2023/06/01 01:56:30;;;;;;;7.35;4.15;;;;;;;12.81;100.00;95879.28;1022333;28;20497;-72
2023/06/01 01:57:00;;;;;;;6.90;3.85;;;;;;;12.78;100.00;95873.75;1032488;28;20025;-73
2023/06/01 01:57:33;;;;;;;7.63;3.53;;;;;;;12.80;100.00;95879.53;1026262;28;20034;-73
2023/06/01 01:58:04;;;;;;;8.40;4.85;;;;;;;12.81;100.00;95876.63;1030219;28;20029;-73
2023/06/01 01:58:35;;;;;;;6.43;4.35;;;;;;;12.78;100.00;95874.53;1025461;28;20018;-74
2023/06/01 01:59:05;;;;;;;8.55;4.28;;;;;;;12.78;100.00;95879.03;1026230;28;20014;-73
2023/06/01 01:59:36;;;;;;;7.63;4.10;;;;;;;12.79;100.00;95876.13;1033486;28;20084;-73
2023/06/01 02:00:08;;;;;;;7.93;4.22;;;;;;;12.79;100.00;95878.75;1026381;28;20041;-73
2023/06/01 02:00:38;;;;;;;11.05;4.30;;;;;;;12.73;100.00;95869.28;1026472;28;20022;-73
2023/06/01 02:01:09;;;;;;;8.55;4.00;;;;;;;12.77;100.00;95878.22;1025434;28;20049;-73
2023/06/01 02:01:44;;;;;;;7.43;4.40;;;;;;;12.80;100.00;95877.69;1026431;28;20066;-73
2023/06/01 02:02:14;;;;;;;8.43;3.83;;;;;;;12.79;100.00;95884.00;1026928;28;20014;-73
2023/06/01 02:02:46;;;;;;;9.27;4.60;;;;;;;12.79;100.00;95884.00;1027001;28;20019;-73
2023/06/01 02:03:16;;;;;;;6.43;4.40;;;;;;;12.78;100.00;95876.41;1017506;29;20519;-73
2023/06/01 02:03:47;;;;;;;11.27;4.57;;;;;;;12.80;100.00;95888.22;1020213;28;20091;-73
2023/06/01 02:04:17;;;;;;;6.15;4.18;;;;;;;12.80;100.00;95882.94;1026014;28;20026;-73
2023/06/01 02:04:48;;;;;;;7.85;4.00;;;;;;;12.80;100.00;95885.56;1026640;28;20027;-73
2023/06/01 02:05:18;;;;;;;9.48;4.40;;;;;;;12.79;100.00;95880.59;1033977;28;20018;-73
2023/06/01 02:05:48;;;;;;;10.27;4.63;;;;;;;12.79;100.00;95881.38;1030171;28;20029;-74
2023/06/01 02:06:19;;;;;;;11.60;4.32;;;;;;;12.80;100.00;95882.16;1034343;28;20041;-73
2023/06/01 02:06:50;;;;;;;8.20;3.97;;;;;;;12.80;100.00;95877.69;1034439;28;20030;-73
2023/06/01 02:07:20;;;;;;;5.82;3.83;;;;;;;12.73;100.00;95871.94;1038174;28;20542;-74
2023/06/01 02:07:50;;;;;;;7.30;4.43;;;;;;;12.76;100.00;95879.28;1038427;28;20026;-73
2023/06/01 02:08:21;;;;;;;6.97;3.88;;;;;;;12.77;100.00;95878.22;1034170;28;20116;-73
2023/06/01 02:08:51;;;;;;;7.38;4.20;;;;;;;12.76;100.00;95883.78;1030114;28;20034;-74
2023/06/01 02:09:22;;;;;;;7.07;3.88;;;;;;;12.73;100.00;95883.25;1030276;28;20034;-73
2023/06/01 02:09:52;;;;;;;7.50;4.30;;;;;;;12.66;100.00;95879.34;1030242;28;20037;-74
2023/06/01 02:10:23;;;;;;;7.03;3.90;;;;;;;12.70;100.00;95875.88;1034610;28;20022;-73
2023/06/01 02:10:53;;;;;;;9.00;4.43;;;;;;;12.70;100.00;95880.38;1038354;28;20025;-73
2023/06/01 02:11:24;;;;;;;6.60;3.72;;;;;;;12.68;100.00;95879.88;1033537;28;20026;-73
2023/06/01 02:11:55;;;;;;;9.63;4.10;;;;;;;12.69;100.00;95870.91;1034206;28;20084;-73
2023/06/01 02:12:25;;;;;;;6.60;4.03;;;;;;;12.67;100.00;95880.91;1030029;28;20467;-73
2023/06/01 02:12:56;;;;;;;4.85;3.63;;;;;;;12.66;100.00;95879.34;1038548;28;20029;-73
2023/06/01 02:13:26;;;;;;;11.60;4.50;;;;;;;12.64;100.00;95879.63;1034282;28;20022;-74
2023/06/01 02:13:56;;;;;;;10.20;4.00;;;;;;;12.61;100.00;95877.53;1029946;28;20027;-73
2023/06/01 02:14:27;;;;;;;6.25;4.40;;;;;;;12.61;100.00;95879.34;1030045;28;20097;-73
2023/06/01 02:14:58;;;;;;;7.00;4.30;;;;;;;12.58;100.00;95883.34;1026290;28;20559;-73
2023/06/01 02:15:28;;;;;;;5.35;3.63;;;;;;;12.57;100.00;95879.13;1026031;28;20385;-73
2023/06/01 02:15:59;;;;;;;8.70;3.85;;;;;;;12.57;100.00;95884.38;1026313;28;20084;-74
2023/06/01 02:16:29;;;;;;;7.70;4.65;;;;;;;12.54;100.00;95879.69;1030040;28;20030;-74
2023/06/01 02:17:00;;;;;;;5.80;4.07;;;;;;;12.48;100.00;95870.22;1030451;28;20033;-74
2023/06/01 02:17:32;;;;;;;7.10;4.20;;;;;;;12.51;100.00;95872.31;1033307;28;20033;-74
2023/06/01 02:18:03;;;;;;;11.65;5.03;;;;;;;12.52;100.00;95887.06;1033708;28;20026;-73
2023/06/01 02:18:35;;;;;;;7.97;4.20;;;;;;;12.49;100.00;95877.84;1030191;28;20041;-74
2023/06/01 02:19:05;;;;;;;7.70;4.10;;;;;;;12.48;100.00;95878.91;1030725;28;20037;-73
2023/06/01 02:19:36;;;;;;;7.32;3.80;;;;;;;12.46;100.00;95883.66;1031622;28;20029;-73
2023/06/01 02:20:06;;;;;;;9.80;4.53;;;;;;;12.45;100.00;95879.44;1030247;28;20038;-74
2023/06/01 02:20:37;;;;;;;7.72;4.35;;;;;;;12.43;100.00;95878.13;1021976;29;20114;-74
2023/06/01 02:21:08;;;;;;;8.35;4.07;;;;;;;12.42;100.00;95874.72;1026567;28;20035;-73
2023/06/01 02:21:39;;;;;;;5.55;3.85;;;;;;;12.41;100.00;95885.53;1026634;28;20040;-73
2023/06/01 02:22:09;;;;;;;10.15;3.70;;;;;;;12.40;100.00;95889.97;1026468;28;20030;-73
2023/06/01 02:22:40;;;;;;;9.00;4.35;;;;;;;12.39;100.00;95882.38;1033626;28;20117;-73
2023/06/01 02:23:11;;;;;;;6.68;4.35;;;;;;;12.33;100.00;95878.97;1030805;28;20042;-74
2023/06/01 02:23:42;;;;;;;6.80;4.00;;;;;;;12.31;100.00;95875.03;1031080;28;20026;-73
2023/06/01 02:24:12;;;;;;;5.80;4.35;;;;;;;12.32;100.00;95881.88;1031023;28;20033;-73
2023/06/01 02:24:43;;;;;;;11.75;4.65;;;;;;;12.31;100.00;95883.72;1028226;28;20109;-73
2023/06/01 02:25:13;;;;;;;10.73;4.25;;;;;;;12.29;100.00;95880.56;1026824;28;20026;-73
2023/06/01 02:25:44;;;;;;;6.07;3.97;;;;;;;12.29;100.00;95879.78;1030782;28;20023;-74
2023/06/01 02:26:14;;;;;;;6.13;4.10;;;;;;;12.27;100.00;95880.84;1038648;28;20018;-73
2023/06/01 02:26:48;;;;;;;8.15;4.60;;;;;;;12.26;100.00;95878.47;1039067;28;20025;-73
2023/06/01 02:27:19;;;;;;;7.55;4.03;;;;;;;12.26;100.00;95881.09;1039164;28;20029;-74
2023/06/01 02:27:50;;;;;;;6.88;4.25;;;;;;;12.25;100.00;95882.16;1038315;28;20029;-73
2023/06/01 02:28:20;;;;;;;7.93;4.40;;;;;;;12.24;100.00;95880.59;1035092;28;20590;-73
2023/06/01 02:28:51;;;;;;;7.88;4.43;;;;;;;12.24;100.00;95877.97;1034666;28;20458;-72
2023/06/01 02:29:24;;;;;;;12.55;4.55;;;;;;;12.24;100.00;95875.34;1039186;28;20096;-74
2023/06/01 02:29:55;;;;;;;6.85;4.78;;;;;;;12.22;100.00;95874.81;1038235;28;20017;-73
2023/06/01 02:30:25;;;;;;;6.75;4.25;;;;;;;12.21;100.00;95876.66;1039090;28;20033;-74
2023/06/01 02:30:55;;;;;;;8.27;4.40;;;;;;;12.20;100.00;95880.31;1038520;28;20025;-73
2023/06/01 02:31:26;;;;;;;6.18;4.07;;;;;;;12.19;100.00;95880.63;1034259;28;20038;-73
2023/06/01 02:31:56;;;;;;;8.48;4.50;;;;;;;12.18;100.00;95879.03;1035479;28;20750;-73
2023/06/01 02:32:29;;;;;;;6.20;4.10;;;;;;;12.18;100.00;95871.16;1035072;28;20101;-73